createdAt,value
2018-06-28T00:00:24.516Z,82
2018-06-28T00:01:26.505Z,81
2018-06-28T00:02:28.514Z,82
2018-06-28T00:03:30.508Z,82
2018-06-28T00:04:32.512Z,82
2018-06-28T00:05:34.516Z,82
2018-06-28T00:06:36.794Z,82
2018-06-28T00:07:39.179Z,82
2018-06-28T00:08:41.579Z,82
2018-06-28T00:09:43.849Z,82
2018-06-28T00:10:45.860Z,82
2018-06-28T00:11:47.855Z,82
2018-06-28T00:12:50.547Z,82
2018-06-28T00:13:52.538Z,82
2018-06-28T00:14:54.536Z,82
2018-06-28T00:15:57.105Z,83
2018-06-28T00:16:59.106Z,83
2018-06-28T00:18:01.096Z,82
2018-06-28T00:19:03.099Z,83
2018-06-28T00:20:05.104Z,83
2018-06-28T00:21:07.101Z,83
2018-06-28T00:22:09.106Z,83
2018-06-28T00:23:11.094Z,83
2018-06-28T00:24:13.088Z,83
2018-06-28T00:25:15.092Z,83
2018-06-28T00:26:17.089Z,83
2018-06-28T00:27:19.090Z,83
2018-06-28T00:28:21.483Z,83
2018-06-28T00:29:23.486Z,83
2018-06-28T00:30:25.773Z,83
2018-06-28T00:31:27.756Z,83
2018-06-28T00:32:29.767Z,84
2018-06-28T00:33:32.047Z,84
2018-06-28T00:34:34.051Z,84
2018-06-28T00:35:36.049Z,84
2018-06-28T00:36:38.045Z,84
2018-06-28T00:37:40.051Z,84
2018-06-28T00:38:42.050Z,84
2018-06-28T00:39:44.347Z,84
2018-06-28T00:40:46.348Z,84
2018-06-28T00:41:48.336Z,84
2018-06-28T00:42:50.338Z,84
2018-06-28T00:43:52.349Z,84
2018-06-28T00:44:55.118Z,85
2018-06-28T00:45:57.118Z,84
2018-06-28T00:46:59.120Z,84
2018-06-28T00:48:01.498Z,84
2018-06-28T00:49:03.504Z,85
2018-06-28T00:50:05.885Z,85
2018-06-28T00:51:07.897Z,85
2018-06-28T00:52:09.897Z,85
2018-06-28T00:53:11.897Z,85
2018-06-28T00:54:13.893Z,86
2018-06-28T00:55:15.894Z,86
2018-06-28T00:56:18.469Z,86
2018-06-28T00:57:20.475Z,85
2018-06-28T00:58:22.465Z,86
2018-06-28T00:59:24.471Z,86
2018-06-28T01:00:26.471Z,86
2018-06-28T01:01:28.469Z,86
2018-06-28T01:02:30.470Z,87
2018-06-28T01:03:32.458Z,87
2018-06-28T01:04:34.768Z,87
2018-06-28T01:05:37.062Z,87
2018-06-28T01:06:39.060Z,87
2018-06-28T01:07:41.061Z,87
2018-06-28T01:08:43.067Z,87
2018-06-28T01:09:45.075Z,87
2018-06-28T01:10:47.367Z,87
2018-06-28T01:11:49.369Z,87
2018-06-28T01:12:51.763Z,88
2018-06-28T01:13:54.142Z,87
2018-06-28T01:14:56.133Z,87
2018-06-28T01:15:58.139Z,88
2018-06-28T01:17:00.132Z,88
2018-06-28T01:18:02.136Z,88
2018-06-28T01:19:04.415Z,88
2018-06-28T01:20:06.417Z,87
2018-06-28T01:21:08.425Z,88
2018-06-28T01:22:10.409Z,87
2018-06-28T01:23:12.420Z,87
2018-06-28T01:24:14.697Z,88
2018-06-28T01:25:16.693Z,88
2018-06-28T01:26:18.983Z,88
2018-06-28T01:27:20.991Z,89
2018-06-28T01:28:22.982Z,88
2018-06-28T01:29:24.982Z,88
2018-06-28T01:30:27.264Z,89
2018-06-28T01:31:29.266Z,89
2018-06-28T01:32:31.258Z,89
2018-06-28T01:33:33.261Z,89
2018-06-28T01:34:35.260Z,89
2018-06-28T01:35:37.261Z,89
2018-06-28T01:36:39.271Z,89
2018-06-28T01:37:41.551Z,88
2018-06-28T01:38:43.538Z,89
2018-06-28T01:39:45.835Z,89
2018-06-28T01:40:48.143Z,89
2018-06-28T01:41:50.153Z,89
2018-06-28T01:42:52.524Z,89
2018-06-28T01:43:54.522Z,90
2018-06-28T01:44:56.528Z,89
2018-06-28T01:45:58.515Z,90
2018-06-28T01:47:00.520Z,90
2018-06-28T01:48:02.841Z,89
2018-06-28T01:49:04.841Z,90
2018-06-28T01:50:06.840Z,90
2018-06-28T01:51:08.840Z,90
2018-06-28T01:52:10.834Z,89
2018-06-28T01:53:12.843Z,90
2018-06-28T01:54:15.109Z,90
2018-06-28T01:55:18.364Z,89
2018-06-28T01:56:20.367Z,89
2018-06-28T01:57:22.352Z,90
2018-06-28T01:58:24.366Z,90
2018-06-28T01:59:26.359Z,90
2018-06-28T02:00:28.356Z,90
2018-06-28T02:01:30.362Z,90
2018-06-28T02:02:32.360Z,90
2018-06-28T02:03:34.373Z,90
2018-06-28T02:04:36.362Z,90
2018-06-28T02:05:38.362Z,90
2018-06-28T02:06:40.367Z,90
2018-06-28T02:07:42.641Z,90
2018-06-28T02:08:44.637Z,90
2018-06-28T02:09:46.631Z,90
2018-06-28T02:10:49.013Z,90
2018-06-28T02:11:51.020Z,90
2018-06-28T02:12:53.016Z,90
2018-06-28T02:13:55.294Z,90
2018-06-28T02:14:57.285Z,90
2018-06-28T02:15:59.573Z,91
2018-06-28T02:17:01.863Z,90
2018-06-28T02:18:04.163Z,90
2018-06-28T02:19:06.181Z,90
2018-06-28T02:20:08.454Z,90
2018-06-28T02:21:10.447Z,91
2018-06-28T02:22:12.457Z,91
2018-06-28T02:23:14.451Z,91
2018-06-28T02:24:16.454Z,90
2018-06-28T02:25:18.514Z,91
2018-06-28T02:26:20.466Z,91
2018-06-28T02:27:22.464Z,90
2018-06-28T02:28:24.453Z,91
2018-06-28T02:29:26.741Z,91
2018-06-28T02:30:28.745Z,91
2018-06-28T02:31:31.022Z,91
2018-06-28T02:32:33.809Z,91
2018-06-28T02:33:36.089Z,91
2018-06-28T02:34:38.365Z,91
2018-06-28T02:35:41.133Z,91
2018-06-28T02:36:43.418Z,91
2018-06-28T02:37:45.732Z,91
2018-06-28T02:38:48.011Z,91
2018-06-28T02:39:50.007Z,92
2018-06-28T02:40:52.289Z,92
2018-06-28T02:41:54.569Z,91
2018-06-28T02:42:56.571Z,92
2018-06-28T02:43:58.573Z,92
2018-06-28T02:45:00.581Z,92
2018-06-28T02:46:02.965Z,92
2018-06-28T02:47:04.954Z,92
2018-06-28T02:48:06.957Z,92
2018-06-28T02:49:08.960Z,92
2018-06-28T02:50:10.955Z,93
2018-06-28T02:51:13.244Z,92
2018-06-28T02:52:15.239Z,92
2018-06-28T02:53:17.923Z,92
2018-06-28T02:54:19.927Z,92
2018-06-28T02:55:22.218Z,92
2018-06-28T02:56:24.510Z,92
2018-06-28T02:57:26.504Z,92
2018-06-28T02:58:28.802Z,93
2018-06-28T02:59:31.151Z,93
2018-06-28T03:00:34.086Z,92
2018-06-28T03:01:36.084Z,93
2018-06-28T03:02:38.120Z,93
2018-06-28T03:03:41.848Z,93
2018-06-28T03:04:43.865Z,93
2018-06-28T03:05:45.864Z,93
2018-06-28T03:06:48.168Z,92
2018-06-28T03:07:50.537Z,93
2018-06-28T03:08:52.836Z,93
2018-06-28T03:09:55.261Z,92
2018-06-28T03:10:57.267Z,92
2018-06-28T03:12:02.628Z,92
2018-06-28T03:13:04.643Z,92
2018-06-28T03:14:06.681Z,92
2018-06-28T03:15:12.037Z,92
2018-06-28T03:16:14.037Z,92
2018-06-28T03:17:17.485Z,92
2018-06-28T03:18:19.515Z,93
2018-06-28T03:19:21.793Z,93
2018-06-28T03:20:24.090Z,93
2018-06-28T03:21:26.124Z,93
2018-06-28T03:22:28.165Z,93
2018-06-28T03:23:30.204Z,93
2018-06-28T03:24:32.520Z,93
2018-06-28T03:25:37.555Z,93
2018-06-28T03:26:39.608Z,93
2018-06-28T03:27:41.607Z,93
2018-06-28T03:28:43.646Z,93
2018-06-28T03:29:45.968Z,93
2018-06-28T03:30:48.091Z,93
2018-06-28T03:31:50.699Z,93
2018-06-28T03:32:55.751Z,93
2018-06-28T03:33:58.080Z,93
2018-06-28T03:35:00.103Z,93
2018-06-28T03:36:02.443Z,93
2018-06-28T03:37:07.805Z,92
2018-06-28T03:38:09.840Z,92
2018-06-28T03:39:11.884Z,92
2018-06-28T03:40:15.097Z,92
2018-06-28T03:41:20.099Z,92
2018-06-28T03:42:22.104Z,92
2018-06-28T03:43:24.109Z,92
2018-06-28T03:44:26.101Z,92
2018-06-28T03:45:28.379Z,92
2018-06-28T03:46:30.381Z,92
2018-06-28T03:47:32.655Z,92
2018-06-28T03:48:34.935Z,92
2018-06-28T03:49:36.943Z,92
2018-06-28T03:50:38.934Z,92
2018-06-28T03:51:40.925Z,91
2018-06-28T03:52:42.930Z,91
2018-06-28T03:53:44.929Z,92
2018-06-28T03:54:46.934Z,92
2018-06-28T03:55:48.927Z,92
2018-06-28T03:56:50.927Z,92
2018-06-28T03:57:53.211Z,92
2018-06-28T03:58:55.193Z,92
2018-06-28T03:59:57.197Z,91
2018-06-28T04:00:59.206Z,91
2018-06-28T04:02:01.203Z,91
2018-06-28T04:03:03.205Z,91
2018-06-28T04:04:05.495Z,91
2018-06-28T04:05:07.494Z,91
2018-06-28T04:06:09.489Z,91
2018-06-28T04:07:11.493Z,91
2018-06-28T04:08:13.484Z,91
2018-06-28T04:09:15.767Z,91
2018-06-28T04:10:17.782Z,91
2018-06-28T04:11:19.768Z,91
2018-06-28T04:12:21.771Z,91
2018-06-28T04:13:23.769Z,91
2018-06-28T04:14:25.764Z,91
2018-06-28T04:15:27.759Z,91
2018-06-28T04:16:29.745Z,91
2018-06-28T04:17:31.758Z,91
2018-06-28T04:18:34.042Z,91
2018-06-28T04:19:36.036Z,91
2018-06-28T04:20:38.042Z,91
2018-06-28T04:21:40.038Z,91
2018-06-28T04:22:42.052Z,91
2018-06-28T04:23:44.337Z,91
2018-06-28T04:24:46.334Z,91
2018-06-28T04:25:48.623Z,91
2018-06-28T04:26:50.617Z,90
2018-06-28T04:27:52.614Z,90
2018-06-28T04:28:54.613Z,91
2018-06-28T04:29:56.611Z,90
2018-06-28T04:30:58.610Z,90
2018-06-28T04:32:01.320Z,90
2018-06-28T04:33:03.305Z,90
2018-06-28T04:34:05.307Z,90
2018-06-28T04:35:07.302Z,90
2018-06-28T04:36:09.301Z,90
2018-06-28T04:37:11.310Z,90
2018-06-28T04:38:13.313Z,90
2018-06-28T04:39:15.690Z,90
2018-06-28T04:40:17.695Z,90
2018-06-28T04:41:19.982Z,90
2018-06-28T04:42:21.984Z,90
2018-06-28T04:43:24.284Z,89
2018-06-28T04:44:26.293Z,90
2018-06-28T04:45:28.298Z,90
2018-06-28T04:46:30.293Z,89
2018-06-28T04:47:32.294Z,89
2018-06-28T04:48:34.290Z,89
2018-06-28T04:49:36.299Z,89
2018-06-28T04:50:38.290Z,89
2018-06-28T04:51:40.297Z,89
2018-06-28T04:52:42.680Z,89
2018-06-28T04:53:44.677Z,89
2018-06-28T04:54:46.672Z,89
2018-06-28T04:55:48.676Z,89
2018-06-28T04:56:50.682Z,89
2018-06-28T04:57:52.682Z,89
2018-06-28T04:58:55.008Z,88
2018-06-28T04:59:56.963Z,89
2018-06-28T05:00:59.267Z,88
2018-06-28T05:02:01.253Z,88
2018-06-28T05:03:04.114Z,88
2018-06-28T05:04:06.118Z,88
2018-06-28T05:05:08.402Z,88
2018-06-28T05:06:11.093Z,88
2018-06-28T05:07:13.098Z,88
2018-06-28T05:08:15.103Z,88
2018-06-28T05:09:17.139Z,87
2018-06-28T05:10:19.090Z,87
2018-06-28T05:11:21.092Z,87
2018-06-28T05:12:23.374Z,87
2018-06-28T05:13:25.375Z,87
2018-06-28T05:14:27.767Z,87
2018-06-28T05:15:29.760Z,86
2018-06-28T05:16:32.142Z,86
2018-06-28T05:17:34.805Z,86
2018-06-28T05:18:37.478Z,86
2018-06-28T05:19:39.486Z,86
2018-06-28T05:20:41.486Z,85
2018-06-28T05:21:43.483Z,85
2018-06-28T05:22:45.484Z,85
2018-06-28T05:23:47.479Z,85
2018-06-28T05:24:49.482Z,85
2018-06-28T05:25:51.485Z,85
2018-06-28T05:26:53.482Z,85
2018-06-28T05:27:55.484Z,85
2018-06-28T05:28:58.179Z,85
2018-06-28T05:30:00.173Z,84
2018-06-28T05:31:02.765Z,84
2018-06-28T05:32:05.153Z,84
2018-06-28T05:33:07.594Z,84
2018-06-28T05:34:10.576Z,84
2018-06-28T05:35:13.874Z,83
2018-06-28T05:36:17.218Z,83
2018-06-28T05:37:20.538Z,83
2018-06-28T05:38:23.988Z,83
2018-06-28T05:39:27.548Z,83
2018-06-28T05:40:31.078Z,83
2018-06-28T05:41:34.577Z,83
2018-06-28T05:42:37.695Z,82
2018-06-28T05:43:41.185Z,82
2018-06-28T05:44:44.408Z,82
2018-06-28T05:45:47.180Z,82
2018-06-28T05:46:49.872Z,82
2018-06-28T05:47:53.178Z,82
2018-06-28T05:48:57.054Z,82
2018-06-28T05:50:00.077Z,82
2018-06-28T05:51:03.462Z,82
2018-06-28T05:52:06.240Z,82
2018-06-28T05:53:09.561Z,82
2018-06-28T05:54:12.862Z,81
2018-06-28T05:55:16.114Z,81
2018-06-28T05:56:19.025Z,81
2018-06-28T05:57:22.727Z,81
2018-06-28T05:58:25.474Z,81
2018-06-28T05:59:28.940Z,81
2018-06-28T06:00:32.321Z,81
2018-06-28T06:01:35.315Z,81
2018-06-28T06:02:38.142Z,80
2018-06-28T06:03:40.554Z,80
2018-06-28T06:04:43.708Z,80
2018-06-28T06:05:47.401Z,80
2018-06-28T06:06:50.218Z,80
2018-06-28T06:07:52.640Z,80
2018-06-28T06:08:55.243Z,79
2018-06-28T06:09:58.961Z,80
2018-06-28T06:11:02.717Z,79
2018-06-28T06:12:05.779Z,79
2018-06-28T06:13:08.994Z,79
2018-06-28T06:14:11.763Z,79
2018-06-28T06:15:15.292Z,79
2018-06-28T06:16:18.764Z,79
2018-06-28T06:17:21.397Z,78
2018-06-28T06:18:23.894Z,78
2018-06-28T06:19:26.372Z,78
2018-06-28T06:20:28.758Z,77
2018-06-28T06:21:31.500Z,77
2018-06-28T06:22:33.925Z,77
2018-06-28T06:23:36.083Z,77
2018-06-28T06:24:38.756Z,77
2018-06-28T06:25:41.339Z,77
2018-06-28T06:26:44.448Z,77
2018-06-28T06:27:48.133Z,77
2018-06-28T06:28:51.246Z,77
2018-06-28T06:29:53.818Z,76
2018-06-28T06:30:56.301Z,76
2018-06-28T06:31:58.300Z,77
2018-06-28T06:33:01.634Z,77
2018-06-28T06:34:06.820Z,77
2018-06-28T06:35:09.756Z,77
2018-06-28T06:36:12.945Z,76
2018-06-28T06:38:00.892Z,76
2018-06-28T06:39:03.251Z,76
2018-06-28T06:40:06.024Z,76
2018-06-28T06:41:08.838Z,75
2018-06-28T06:42:12.607Z,75
2018-06-28T06:43:15.882Z,75
2018-06-28T06:44:19.538Z,75
2018-06-28T06:45:22.604Z,74
2018-06-28T06:46:24.685Z,74
2018-06-28T06:47:28.058Z,74
2018-06-28T06:48:31.129Z,74
2018-06-28T06:49:33.484Z,74
2018-06-28T06:50:36.335Z,73
2018-06-28T06:51:39.811Z,74
2018-06-28T06:52:42.888Z,74
2018-06-28T06:53:45.328Z,74
2018-06-28T06:54:49.356Z,74
2018-06-28T06:55:52.257Z,74
2018-06-28T06:56:54.834Z,74
2018-06-28T06:57:58.001Z,73
2018-06-28T06:59:02.330Z,73
2018-06-28T07:00:04.956Z,73
2018-06-28T07:01:07.124Z,73
2018-06-28T07:02:09.714Z,73
2018-06-28T07:03:12.872Z,73
2018-06-28T07:04:16.955Z,73
2018-06-28T07:05:19.947Z,73
2018-06-28T07:06:22.820Z,72
2018-06-28T07:07:26.045Z,72
2018-06-28T07:08:28.392Z,73
2018-06-28T07:09:30.463Z,72
2018-06-28T07:10:32.786Z,72
2018-06-28T07:11:35.508Z,72
2018-06-28T07:12:38.798Z,72
2018-06-28T07:13:42.803Z,72
2018-06-28T07:14:45.383Z,71
2018-06-28T07:15:47.794Z,71
2018-06-28T07:16:51.013Z,71
2018-06-28T07:17:54.284Z,71
2018-06-28T07:18:57.721Z,71
2018-06-28T07:20:01.187Z,71
2018-06-28T07:21:04.131Z,71
2018-06-28T07:22:07.148Z,70
2018-06-28T07:23:11.142Z,70
2018-06-28T07:24:14.426Z,69
2018-06-28T07:25:16.828Z,69
2018-06-28T07:26:19.198Z,69
2018-06-28T07:27:22.641Z,69
2018-06-28T07:28:25.858Z,69
2018-06-28T07:29:29.108Z,69
2018-06-28T07:30:32.127Z,68
2018-06-28T07:31:35.163Z,68
2018-06-28T07:32:37.793Z,68
2018-06-28T07:33:40.874Z,68
2018-06-28T07:34:43.796Z,68
2018-06-28T07:35:47.277Z,66
2018-06-28T07:36:50.399Z,67
2018-06-28T07:37:53.284Z,67
2018-06-28T07:38:56.231Z,67
2018-06-28T07:39:59.314Z,66
2018-06-28T07:41:02.219Z,66
2018-06-28T07:42:05.397Z,66
2018-06-28T07:43:07.750Z,65
2018-06-28T07:44:10.796Z,66
2018-06-28T07:45:13.177Z,66
2018-06-28T07:46:15.774Z,65
2018-06-28T07:47:18.739Z,64
2018-06-28T07:48:23.197Z,64
2018-06-28T07:49:26.152Z,63
2018-06-28T07:50:29.626Z,65
2018-06-28T07:51:32.950Z,64
2018-06-28T07:52:36.083Z,64
2018-06-28T07:53:38.849Z,64
2018-06-28T07:54:41.763Z,64
2018-06-28T07:55:45.628Z,64
2018-06-28T07:56:48.801Z,64
2018-06-28T07:57:51.875Z,63
2018-06-28T07:58:54.281Z,62
2018-06-28T07:59:58.050Z,62
2018-06-28T08:01:00.978Z,62
2018-06-28T08:02:03.873Z,62
2018-06-28T08:03:06.378Z,60
2018-06-28T08:04:10.542Z,60
2018-06-28T08:05:13.114Z,61
2018-06-28T08:06:16.030Z,61
2018-06-28T08:07:19.727Z,61
2018-06-28T08:08:22.398Z,58
2018-06-28T08:09:24.965Z,59
2018-06-28T08:10:27.651Z,59
2018-06-28T08:11:30.644Z,58
2018-06-28T08:12:33.427Z,59
2018-06-28T08:13:35.949Z,60
2018-06-28T08:14:39.146Z,59
2018-06-28T08:15:42.100Z,60
2018-06-28T08:16:45.159Z,60
2018-06-28T08:17:47.789Z,58
2018-06-28T08:18:50.013Z,60
2018-06-28T08:19:53.258Z,58
2018-06-28T08:20:55.831Z,57
2018-06-28T08:21:58.104Z,59
2018-06-28T08:23:01.064Z,58
2018-06-28T08:24:05.518Z,57
2018-06-28T08:25:08.598Z,59
2018-06-28T08:26:11.705Z,60
2018-06-28T08:27:15.283Z,58
2018-06-28T08:28:17.952Z,56
2018-06-28T08:29:20.451Z,56
2018-06-28T08:30:23.735Z,57
2018-06-28T08:31:27.402Z,57
2018-06-28T08:32:30.968Z,57
2018-06-28T08:33:33.491Z,57
2018-06-28T08:34:37.052Z,55
2018-06-28T08:35:39.597Z,56
2018-06-28T08:36:41.912Z,56
2018-06-28T08:37:45.537Z,54
2018-06-28T08:38:48.100Z,55
2018-06-28T08:39:50.850Z,53
2018-06-28T08:40:53.303Z,56
2018-06-28T08:41:55.617Z,54
2018-06-28T08:42:59.636Z,53
2018-06-28T08:44:02.198Z,53
2018-06-28T08:45:05.966Z,53
2018-06-28T08:46:09.160Z,53
2018-06-28T08:47:11.938Z,52
2018-06-28T08:48:14.624Z,52
2018-06-28T08:49:17.899Z,52
2018-06-28T08:50:22.039Z,52
2018-06-28T08:51:25.345Z,53
2018-06-28T08:52:27.575Z,52
2018-06-28T08:53:29.965Z,53
2018-06-28T08:54:33.210Z,52
2018-06-28T08:55:36.289Z,51
2018-06-28T08:56:39.626Z,51
2018-06-28T08:57:43.478Z,52
2018-06-28T08:58:45.943Z,50
2018-06-28T08:59:48.057Z,51
2018-06-28T09:00:50.691Z,51
2018-06-28T09:01:53.966Z,51
2018-06-28T09:02:57.486Z,50
2018-06-28T09:04:00.273Z,51
2018-06-28T09:05:03.133Z,49
2018-06-28T09:06:05.925Z,50
2018-06-28T09:07:09.329Z,51
2018-06-28T09:08:12.472Z,49
2018-06-28T09:09:15.601Z,48
2018-06-28T09:10:18.775Z,50
2018-06-28T09:11:22.048Z,48
2018-06-28T09:12:25.552Z,48
2018-06-28T09:13:28.478Z,49
2018-06-28T09:14:31.528Z,48
2018-06-28T09:15:34.535Z,49
2018-06-28T09:16:37.954Z,49
2018-06-28T09:17:40.534Z,49
2018-06-28T09:18:44.425Z,47
2018-06-28T09:19:46.933Z,48
2018-06-28T09:20:49.550Z,48
2018-06-28T09:21:52.206Z,47
2018-06-28T09:22:54.574Z,49
2018-06-28T09:23:57.780Z,48
2018-06-28T09:25:00.921Z,48
2018-06-28T09:26:04.345Z,48
2018-06-28T09:27:06.631Z,47
2018-06-28T09:28:09.054Z,47
2018-06-28T09:29:11.332Z,46
2018-06-28T09:30:13.524Z,47
2018-06-28T09:31:16.142Z,47
2018-06-28T09:32:19.169Z,46
2018-06-28T09:33:22.417Z,46
2018-06-28T09:34:24.849Z,44
2018-06-28T09:35:27.046Z,45
2018-06-28T09:36:30.050Z,44
2018-06-28T09:37:33.161Z,44
2018-06-28T09:38:35.629Z,45
2018-06-28T09:39:38.496Z,45
2018-06-28T09:40:41.021Z,45
2018-06-28T09:41:43.498Z,46
2018-06-28T09:42:46.063Z,45
2018-06-28T09:43:48.388Z,46
2018-06-28T09:44:51.614Z,46
2018-06-28T09:45:55.646Z,45
2018-06-28T09:46:58.594Z,46
2018-06-28T09:48:01.083Z,44
2018-06-28T09:49:03.953Z,43
2018-06-28T09:50:07.095Z,43
2018-06-28T09:51:09.587Z,43
2018-06-28T09:52:12.557Z,43
2018-06-28T09:53:15.701Z,42
2018-06-28T09:54:18.854Z,42
2018-06-28T09:55:23.428Z,42
2018-06-28T09:56:27.045Z,42
2018-06-28T09:57:30.281Z,43
2018-06-28T09:58:33.029Z,41
2018-06-28T09:59:35.493Z,41
2018-06-28T10:00:37.935Z,43
2018-06-28T10:01:40.058Z,41
2018-06-28T10:02:42.984Z,42
2018-06-28T10:03:45.610Z,41
2018-06-28T10:04:47.665Z,43
2018-06-28T10:05:49.704Z,41
2018-06-28T10:06:51.797Z,41
2018-06-28T10:07:56.883Z,43
2018-06-28T10:08:59.261Z,42
2018-06-28T10:10:01.321Z,43
2018-06-28T10:11:03.381Z,40
2018-06-28T10:12:05.729Z,42
2018-06-28T10:13:08.292Z,41
2018-06-28T10:14:10.704Z,40
2018-06-28T10:15:13.602Z,42
2018-06-28T10:16:17.046Z,39
2018-06-28T10:17:20.483Z,40
2018-06-28T10:18:22.531Z,41
2018-06-28T10:19:25.951Z,41
2018-06-28T10:20:28.576Z,42
2018-06-28T10:21:30.937Z,42
2018-06-28T10:22:32.986Z,43
2018-06-28T10:23:35.021Z,43
2018-06-28T10:24:37.081Z,40
2018-06-28T10:25:39.789Z,42
2018-06-28T10:26:45.463Z,40
2018-06-28T10:28:17.606Z,41
2018-06-28T10:29:19.672Z,40
2018-06-28T10:30:21.734Z,39
2018-06-28T10:31:24.745Z,39
2018-06-28T10:32:29.943Z,40
2018-06-28T10:33:34.397Z,39
2018-06-28T10:34:37.870Z,39
2018-06-28T10:35:41.384Z,40
2018-06-28T10:36:44.245Z,40
2018-06-28T10:37:48.251Z,41
2018-06-28T10:38:52.128Z,39
2018-06-28T10:39:55.569Z,38
2018-06-28T10:40:59.157Z,39
2018-06-28T10:42:03.400Z,39
2018-06-28T10:43:05.914Z,39
2018-06-28T10:44:08.828Z,39
2018-06-28T10:45:12.358Z,38
2018-06-28T10:46:14.660Z,39
2018-06-28T10:47:17.676Z,39
2018-06-28T10:48:20.356Z,39
2018-06-28T10:49:23.706Z,39
2018-06-28T10:50:26.610Z,38
2018-06-28T10:51:29.431Z,40
2018-06-28T10:52:31.634Z,37
2018-06-28T10:53:33.892Z,38
2018-06-28T10:54:36.689Z,38
2018-06-28T10:55:40.244Z,39
2018-06-28T10:56:42.761Z,39
2018-06-28T10:57:45.697Z,37
2018-06-28T10:58:48.286Z,38
2018-06-28T10:59:51.004Z,38
2018-06-28T11:00:54.468Z,37
2018-06-28T11:01:57.539Z,38
2018-06-28T11:03:00.800Z,38
2018-06-28T11:04:04.401Z,38
2018-06-28T11:05:06.976Z,36
2018-06-28T11:06:09.396Z,37
2018-06-28T11:07:12.293Z,38
2018-06-28T11:08:15.096Z,38
2018-06-28T11:09:17.866Z,38
2018-06-28T11:10:20.273Z,38
2018-06-28T11:11:23.296Z,38
2018-06-28T11:12:26.282Z,40
2018-06-28T11:13:29.861Z,37
2018-06-28T11:14:32.710Z,38
2018-06-28T11:15:35.169Z,39
2018-06-28T11:16:37.864Z,38
2018-06-28T11:17:40.336Z,38
2018-06-28T11:18:42.815Z,38
2018-06-28T11:19:46.241Z,39
2018-06-28T11:20:49.188Z,39
2018-06-28T11:21:51.872Z,41
2018-06-28T11:22:54.566Z,38
2018-06-28T11:23:57.249Z,38
2018-06-28T11:25:00.941Z,39
2018-06-28T11:26:04.170Z,39
2018-06-28T11:27:07.424Z,38
2018-06-28T11:28:10.319Z,38
2018-06-28T11:29:13.274Z,39
2018-06-28T11:30:16.949Z,40
2018-06-28T11:31:19.455Z,40
2018-06-28T11:32:21.548Z,39
2018-06-28T11:33:24.552Z,39
2018-06-28T11:34:26.831Z,38
2018-06-28T11:35:30.074Z,39
2018-06-28T11:36:32.573Z,38
2018-06-28T11:37:35.926Z,39
2018-06-28T11:38:38.727Z,38
2018-06-28T11:39:40.941Z,39
2018-06-28T11:40:44.005Z,38
2018-06-28T11:41:47.253Z,40
2018-06-28T11:42:50.389Z,39
2018-06-28T11:43:53.350Z,39
2018-06-28T11:44:55.800Z,41
2018-06-28T11:45:58.536Z,40
2018-06-28T11:47:01.101Z,40
2018-06-28T11:48:04.646Z,40
2018-06-28T11:49:07.631Z,41
2018-06-28T11:50:10.144Z,40
2018-06-28T11:51:12.298Z,39
2018-06-28T11:52:14.733Z,39
2018-06-28T11:53:17.171Z,40
2018-06-28T11:54:19.601Z,41
2018-06-28T11:55:22.719Z,42
2018-06-28T11:56:25.566Z,39
2018-06-28T11:57:28.811Z,41
2018-06-28T11:58:32.240Z,41
2018-06-28T11:59:35.082Z,42
2018-06-28T12:00:38.614Z,41
2018-06-28T12:01:41.676Z,42
2018-06-28T12:02:44.605Z,42
2018-06-28T12:03:47.942Z,42
2018-06-28T12:04:50.753Z,41
2018-06-28T12:05:53.902Z,41
2018-06-28T12:06:57.790Z,41
2018-06-28T12:08:01.251Z,41
2018-06-28T12:09:04.397Z,41
2018-06-28T12:10:07.761Z,39
2018-06-28T12:11:10.856Z,40
2018-06-28T12:12:13.505Z,39
2018-06-28T12:13:17.114Z,41
2018-06-28T12:14:21.023Z,41
2018-06-28T12:15:24.031Z,40
2018-06-28T12:16:27.182Z,40
2018-06-28T12:17:30.429Z,39
2018-06-28T12:18:33.183Z,40
2018-06-28T12:19:36.228Z,39
2018-06-28T12:20:38.810Z,39
2018-06-28T12:21:42.333Z,39
2018-06-28T12:22:44.960Z,37
2018-06-28T12:23:47.785Z,39
2018-06-28T12:24:50.974Z,39
2018-06-28T12:25:53.706Z,37
2018-06-28T12:26:57.065Z,38
2018-06-28T12:28:00.489Z,37
2018-06-28T12:29:03.283Z,38
2018-06-28T12:30:06.128Z,38
2018-06-28T12:31:09.560Z,38
2018-06-28T12:32:13.347Z,38
2018-06-28T12:33:15.749Z,37
2018-06-28T12:34:19.590Z,37
2018-06-28T12:35:22.891Z,38
2018-06-28T12:36:26.276Z,38
2018-06-28T12:37:29.783Z,38
2018-06-28T12:38:32.924Z,38
2018-06-28T12:39:35.618Z,37
2018-06-28T12:40:38.958Z,36
2018-06-28T12:41:41.795Z,37
2018-06-28T12:42:45.142Z,35
2018-06-28T12:43:48.316Z,35
2018-06-28T12:44:51.116Z,36
2018-06-28T12:45:53.611Z,35
2018-06-28T12:46:56.900Z,36
2018-06-28T12:48:00.251Z,37
2018-06-28T12:49:03.879Z,37
2018-06-28T12:50:07.446Z,36
2018-06-28T12:51:10.433Z,37
2018-06-28T12:52:13.773Z,36
2018-06-28T12:53:16.874Z,37
2018-06-28T12:54:19.105Z,38
2018-06-28T12:55:21.974Z,37
2018-06-28T12:56:24.728Z,37
2018-06-28T12:57:27.444Z,37
2018-06-28T12:58:30.066Z,35
2018-06-28T12:59:33.179Z,38
2018-06-28T13:00:36.716Z,36
2018-06-28T13:01:40.081Z,36
2018-06-28T13:02:43.281Z,37
2018-06-28T13:03:46.042Z,37
2018-06-28T13:04:49.082Z,35
2018-06-28T13:05:52.579Z,36
2018-06-28T13:06:55.067Z,38
2018-06-28T13:07:57.878Z,38
2018-06-28T13:09:00.876Z,36
2018-06-28T13:10:03.338Z,37
2018-06-28T13:11:05.441Z,37
2018-06-28T13:12:08.173Z,35
2018-06-28T13:13:11.391Z,37
2018-06-28T13:14:13.960Z,36
2018-06-28T13:15:17.022Z,36
2018-06-28T13:16:21.039Z,37
2018-06-28T13:17:24.171Z,38
2018-06-28T13:18:27.273Z,37
2018-06-28T13:19:30.845Z,36
2018-06-28T13:20:33.516Z,37
2018-06-28T13:21:36.736Z,37
2018-06-28T13:22:39.455Z,37
2018-06-28T13:23:42.510Z,37
2018-06-28T13:24:45.730Z,38
2018-06-28T13:25:48.372Z,38
2018-06-28T13:26:51.185Z,37
2018-06-28T13:27:54.122Z,38
2018-06-28T13:28:57.005Z,37
2018-06-28T13:30:00.138Z,36
2018-06-28T13:31:03.678Z,36
2018-06-28T13:32:06.354Z,37
2018-06-28T13:33:09.055Z,38
2018-06-28T13:34:11.729Z,36
2018-06-28T13:35:14.782Z,36
2018-06-28T13:36:17.694Z,36
2018-06-28T13:37:20.398Z,36
2018-06-28T13:38:23.496Z,39
2018-06-28T13:39:26.631Z,38
2018-06-28T13:40:29.797Z,36
2018-06-28T13:41:33.379Z,36
2018-06-28T13:42:36.315Z,36
2018-06-28T13:43:39.220Z,36
2018-06-28T13:44:42.117Z,36
2018-06-28T13:45:44.837Z,36
2018-06-28T13:46:47.681Z,37
2018-06-28T13:47:50.346Z,38
2018-06-28T13:48:52.919Z,27
2018-06-28T13:49:55.853Z,37
2018-06-28T13:50:59.069Z,37
2018-06-28T13:52:02.106Z,36
2018-06-28T13:53:05.446Z,38
2018-06-28T13:54:08.590Z,37
2018-06-28T13:55:12.199Z,37
2018-06-28T13:56:15.682Z,37
2018-06-28T13:57:18.336Z,37
2018-06-28T13:58:21.674Z,38
2018-06-28T13:59:25.018Z,38
2018-06-28T14:00:28.352Z,38
2018-06-28T14:01:31.719Z,39
2018-06-28T14:02:34.851Z,37
2018-06-28T14:03:37.490Z,37
2018-06-28T14:04:41.467Z,37
2018-06-28T14:05:45.134Z,37
2018-06-28T14:06:48.417Z,36
2018-06-28T14:07:51.686Z,36
2018-06-28T14:08:53.951Z,37
2018-06-28T14:09:56.143Z,36
2018-06-28T14:10:58.738Z,36
2018-06-28T14:12:01.443Z,38
2018-06-28T14:13:04.804Z,37
2018-06-28T14:14:07.336Z,36
2018-06-28T14:15:09.760Z,37
2018-06-28T14:16:12.062Z,37
2018-06-28T14:17:14.580Z,37
2018-06-28T14:18:17.842Z,38
2018-06-28T14:19:19.991Z,37
2018-06-28T14:20:22.093Z,37
2018-06-28T14:21:25.236Z,37
2018-06-28T14:22:27.936Z,36
2018-06-28T14:23:30.559Z,36
2018-06-28T14:24:33.883Z,37
2018-06-28T14:25:37.341Z,37
2018-06-28T14:26:41.205Z,37
2018-06-28T14:27:44.741Z,37
2018-06-28T14:28:48.182Z,36
2018-06-28T14:29:51.580Z,37
2018-06-28T14:30:54.859Z,38
2018-06-28T14:31:57.744Z,36
2018-06-28T14:33:00.807Z,37
2018-06-28T14:34:04.635Z,37
2018-06-28T14:35:08.219Z,36
2018-06-28T14:36:11.811Z,36
2018-06-28T14:37:14.742Z,36
2018-06-28T14:38:18.778Z,36
2018-06-28T14:39:22.955Z,35
2018-06-28T14:40:26.205Z,35
2018-06-28T14:41:28.545Z,35
2018-06-28T14:42:30.610Z,34
2018-06-28T14:43:32.683Z,34
2018-06-28T14:44:35.049Z,36
2018-06-28T14:45:37.516Z,34
2018-06-28T14:46:39.578Z,34
2018-06-28T14:47:41.650Z,34
2018-06-28T14:48:43.737Z,33
2018-06-28T14:49:45.817Z,34
2018-06-28T14:50:47.881Z,35
2018-06-28T14:51:50.249Z,33
2018-06-28T14:52:52.536Z,33
2018-06-28T14:53:54.608Z,34
2018-06-28T14:54:57.062Z,34